Regina International Airport
CYQR : now visible

Airfield :











YOU CAN JOIN US ON...

 
LOGIN :

Register | Disclaimer

   EN    FR    IT 

 









Legend :    VFR   Marginal VFR   IFR   Intensive IFR   Very Intensive IFR
Visi :
Ceiling :
>= 8 km
>= 3000ft
5 to 8 km
1000 to 3000 ft
1500m to 5 km
500 to 1000 ft
800 to 1500m
200 to 500 ft
< 800m
< 200 ft
Symbols :   Thunderstorms  Fog  Heavy snow  Heavy precipitations  Wind > 20 kt






- Airport Elevation : 1894 ft
- IATA code : YQR


CYQR - Regina International

CURRENT METAR :
  • 071500Z 14006KT 15SM FEW100 FEW250 M01/M05 A3045 RMK AC1CI1 AC TR CI TR SLP345

EXPIRED METARs :
  • 071400Z 13007KT 15SM FEW100 M05/M07 A3046 RMK AC1 AC TR SLP349
  • 071300Z 12006KT 15SM FEW260 M06/M09 A3046 RMK CI1 CI TR SLP352

TAF TAF CYQR
Valid from the 07 at 12:00 until the 08 at 12:00 UTC


071140Z 0712/0812 14007KT P6SM SKC
BECMG 0714/0716 20010KT
FM071800 27012KT P6SM FEW060
BECMG 0800/0802 32010KT
BECMG 0804/0806 26006KT
FM080600 26006KT P6SM SKC
PROB30 0806/0812 1/2SM FG RMK NXT FCST BY 071800Z
CZWG FIR / North America



MET'MAP, your aeronautical weather chart ! - Copyright ORBIFLY December 2007 - Disclaimer

ORBIFLY MET'MAP TEAM :

Programming & Development : Alexandra Zaïnal
Original concept : Baudouin d'Aumeries
Technical & hardware support : Manuel Goepfert
Assistance : Marc-Olivier Méhu




SOURCES & CREDITS :

   NOAA       Earth
Advisory